Aérodrome :
LOGIN :

S'inscrire | Disclaimer

   EN    FR    IT 

 










Légende :    VFR   VFR Marginal   IFR   IFR Intensif   IFR Très Intensif
Visi : 
Plafond : 
>= 8 km
>= 3000ft
5 à 8 km
1000 à 3000 ft
1500m à 5 km
500 à 1000 ft
800 à 1500m
200 à 500 ft
< 800m
< 200 ft
Symboles :   Orages  Brouillard  Fortes neiges  Fortes précipitations  Vent > 20 kt
SIGMETs :   Divers  Orages  Givrage  Turbulence  Onde Orograph.  Cendres Volcan.







- Altitude de l'aérodrome : 1017 ft
- Voir les cartes d'approche


LFSL - Brive Souillac

DERNIER METAR :
  • 191000Z AUTO 29005KT 230V330 9999 BKN011 OVC016 12/09 Q1009 NOSIG

METARs EXPIRÉS :
  • 190930Z AUTO 28007KT 230V310 9999 BKN009 OVC015 11/09 Q1009 BECMG BKN012
  • 190900Z AUTO 29006KT 230V320 9999 BKN009 BKN014 OVC020 11/09 Q1009 BECMG BKN012
  • 190830Z AUTO 26004KT 220V310 9999 BKN013 OVC018 11/09 Q1009 NOSIG
  • 190800Z AUTO 30006KT 270V330 9999 FEW010 OVC017 11/10 Q1009 BECMG BKN012 BKN030
  • 190730Z AUTO 28005KT 200V320 9999 BKN009 BKN015 BKN066 11/10 Q1009 BECMG BKN012 BKN030

TAF TAF LFSL
Valide du 19 à 09h jusqu'au 19 à 18h UTC


190800Z 1909/1918 28005KT 9999 BKN009
BECMG 1909/1911 BKN012
PROB40
TEMPO 1912/1918 27015KT SHRA SCT020TCU
Pas de NOTAMs connus pour ce terrain.



MET'MAP, la Météo Aéronautique d'un coup d'oeil ! - Copyright ORBIFLY Décembre 2007 - Disclaimer

ORBIFLY MET'MAP TEAM :

Programmation & Développement : Alexandra Zaïnal
Conception & Développement : Baudouin d'Aumeries
Co-Programmation & Développement : Marc-Olivier Méhu
Soutien technique & logistique : Manuel Goepfert

Contact : metmap@orbifly.com




SOURCES & CREDITS :

   NOAA